Terminal Aerodrome Forecast
Issued by NWS

Home | Current Version | Previous Version | Text Only | Print | Product List | Glossary On
Versions: 1 2 3 4 5 6 7 8 9 10 11 12 13 14
333
FTUS44 KEPZ 270815 AAA
TAFDMN
TAF AMD
KDMN 270815Z 2708/2806 22006KT P6SM SCT080 BKN250
      TEMPO 2709/2711 VRB20G30KT 3SM TSRA BKN040CB
     FM271200 24005KT P6SM FEW080 SCT250
     FM272100 21006KT P6SM VCTS SCT080CB BKN250
     FM280400 28006KT P6SM SCT080 BKN250=

USA.gov is the U.S. government's official web portal to all federal, state and local government web resources and services.